PWSweather.com
Personal Weather Stations
Station Observations
GRD01
Warsaw, LesznoPL 05-084

WarsawLesznoPL 05-084

Lat: 52.257404, Lon: 20.564847

Elevation: 298

Station Type: WH3080

http://pogoda.kampinos.waw.pl

High Low Average
Temperature 68.9°F20.5°C 55.8°F13.2°C 60.9°F16.1°C
Dew Point 59.4°F15.2°C 51.8°F11.0°C 55.7°F13.2°C
Winds 9.8 mph 15.8 kmh Calm Calm 5.0 mph NE8.0 kmh NE
Wind Gusts 19.7 mph31.7 kmh 3.1 mph5.0 kmh 9.0 mph14.5 kmh
Humidity 97% 62% 84%
Pressure 29.59 in1002.0 mb 29.42 in996.3 mb -
Precipitation 0.50 in12.7 mm - -
Hour Temp Dew Point Humidity Winds Wind Gusts Pressure Precip Precip Rate Daily Precip Total
12:00 AM 57.9°F14.4°C 53.8°F12.1°C 86% 4.5 mph NNE7.2 kmh NNE 6.9 mph11.1 kmh 29.59 in1002.0 mb 0.00 in0.0 mm 0.00 in0.0 mm 0.00 in0.0 mm
12:15 AM 57.9°F14.4°C 53.8°F12.1°C 86% 3.1 mph NE5.0 kmh NE 5.4 mph8.7 kmh 29.59 in1002.0 mb 0.00 in0.0 mm 0.00 in0.0 mm 0.00 in0.0 mm
12:30 AM 58.1°F14.5°C 53.9°F12.2°C 86% 3.1 mph NE5.0 kmh NE 5.4 mph8.7 kmh 29.59 in1002.0 mb 0.00 in0.0 mm 0.00 in0.0 mm 0.00 in0.0 mm
12:45 AM 58.1°F14.5°C 53.9°F12.2°C 86% 3.8 mph NE6.1 kmh NE 6.9 mph11.1 kmh 29.59 in1002.0 mb 0.00 in0.0 mm 0.00 in0.0 mm 0.00 in0.0 mm
01:00 AM 58.3°F14.6°C 54.1°F12.3°C 86% 4.5 mph NE7.2 kmh NE 6.9 mph11.1 kmh 29.59 in1002.0 mb 0.00 in0.0 mm 0.00 in0.0 mm 0.00 in0.0 mm
01:15 AM 58.3°F14.6°C 54.1°F12.3°C 86% 3.1 mph NE5.0 kmh NE 7.6 mph12.2 kmh 29.59 in1002.0 mb 0.00 in0.0 mm 0.00 in0.0 mm 0.00 in0.0 mm
01:30 AM 58.3°F14.6°C 54.1°F12.3°C 86% 3.1 mph NNE5.0 kmh NNE 6.0 mph9.7 kmh 29.59 in1002.0 mb 0.00 in0.0 mm 0.00 in0.0 mm 0.00 in0.0 mm
01:45 AM 58.5°F14.7°C 54.3°F12.4°C 86% 3.8 mph NE6.1 kmh NE 6.0 mph9.7 kmh 29.59 in1002.0 mb 0.00 in0.0 mm 0.00 in0.0 mm 0.00 in0.0 mm
02:00 AM 58.6°F14.8°C 54.1°F12.3°C 85% 1.6 mph NE2.6 kmh NE 4.5 mph7.2 kmh 29.59 in1002.0 mb 0.00 in0.0 mm 0.00 in0.0 mm 0.00 in0.0 mm
02:15 AM 58.8°F14.9°C 54.3°F12.4°C 85% 3.8 mph NE6.1 kmh NE 6.0 mph9.7 kmh 29.59 in1002.0 mb 0.00 in0.0 mm 0.00 in0.0 mm 0.00 in0.0 mm
02:30 AM 58.6°F14.8°C 54.1°F12.3°C 85% 2.2 mph NE3.5 kmh NE 5.4 mph8.7 kmh 29.59 in1002.0 mb 0.00 in0.0 mm 0.00 in0.0 mm 0.00 in0.0 mm
02:45 AM 58.6°F14.8°C 53.8°F12.1°C 84% 0.7 mph NE1.1 kmh NE 5.4 mph8.7 kmh 29.59 in1002.0 mb 0.00 in0.0 mm 0.00 in0.0 mm 0.00 in0.0 mm
03:00 AM 58.1°F14.5°C 53.3°F11.8°C 84% 2.2 mph NE3.5 kmh NE 4.5 mph7.2 kmh 29.58 in1001.7 mb 0.00 in0.0 mm 0.00 in0.0 mm 0.00 in0.0 mm
03:15 AM 57.6°F14.2°C 52.8°F11.6°C 84% 2.2 mph NE3.5 kmh NE 3.8 mph6.1 kmh 29.57 in1001.4 mb 0.00 in0.0 mm 0.00 in0.0 mm 0.00 in0.0 mm
03:30 AM 57.2°F14.0°C 52.4°F11.3°C 84% 2.2 mph NE3.5 kmh NE 3.1 mph5.0 kmh 29.58 in1001.7 mb 0.00 in0.0 mm 0.00 in0.0 mm 0.00 in0.0 mm
03:45 AM 56.7°F13.7°C 52.2°F11.2°C 85% 1.6 mph NE2.6 kmh NE 4.5 mph7.2 kmh 29.57 in1001.4 mb 0.00 in0.0 mm 0.00 in0.0 mm 0.00 in0.0 mm
04:00 AM 56.3°F13.5°C 51.8°F11.0°C 85% 2.2 mph NE3.5 kmh NE 4.5 mph7.2 kmh 29.57 in1001.4 mb 0.00 in0.0 mm 0.00 in0.0 mm 0.00 in0.0 mm
04:15 AM 55.9°F13.3°C 51.8°F11.0°C 86% 2.2 mph NNE3.5 kmh NNE 4.5 mph7.2 kmh 29.57 in1001.4 mb 0.00 in0.0 mm 0.00 in0.0 mm 0.00 in0.0 mm
04:30 AM 55.8°F13.2°C 51.9°F11.1°C 87% 2.2 mph NE3.5 kmh NE 4.5 mph7.2 kmh 29.58 in1001.7 mb 0.00 in0.0 mm 0.00 in0.0 mm 0.00 in0.0 mm
04:45 AM 55.8°F13.2°C 52.3°F11.3°C 88% 1.6 mph NE2.6 kmh NE 3.8 mph6.1 kmh 29.57 in1001.4 mb 0.00 in0.0 mm 0.00 in0.0 mm 0.00 in0.0 mm
05:00 AM 55.9°F13.3°C 52.7°F11.5°C 89% 1.6 mph NNE2.6 kmh NNE 4.5 mph7.2 kmh 29.57 in1001.4 mb 0.00 in0.0 mm 0.00 in0.0 mm 0.00 in0.0 mm
05:15 AM 56.5°F13.6°C 53.6°F12.0°C 90% 2.2 mph NE3.5 kmh NE 6.0 mph9.7 kmh 29.57 in1001.4 mb 0.00 in0.0 mm 0.00 in0.0 mm 0.00 in0.0 mm
05:30 AM 56.7°F13.7°C 53.8°F12.1°C 90% 3.8 mph NE6.1 kmh NE 6.0 mph9.7 kmh 29.57 in1001.4 mb 0.00 in0.0 mm 0.00 in0.0 mm 0.00 in0.0 mm
05:45 AM 57.0°F13.9°C 54.4°F12.4°C 91% 2.2 mph NE3.5 kmh NE 5.4 mph8.7 kmh 29.58 in1001.7 mb 0.00 in0.0 mm 0.00 in0.0 mm 0.00 in0.0 mm
06:00 AM 57.7°F14.3°C 55.1°F12.8°C 91% Calm Calm 3.1 mph5.0 kmh 29.57 in1001.4 mb 0.00 in0.0 mm 0.00 in0.0 mm 0.00 in0.0 mm
06:15 AM 58.5°F14.7°C 55.8°F13.2°C 91% 2.2 mph ENE3.5 kmh ENE 3.8 mph6.1 kmh 29.58 in1001.7 mb 0.00 in0.0 mm 0.00 in0.0 mm 0.00 in0.0 mm
06:30 AM 59.5°F15.3°C 56.9°F13.8°C 91% 2.2 mph E3.5 kmh E 5.4 mph8.7 kmh 29.57 in1001.4 mb 0.00 in0.0 mm 0.00 in0.0 mm 0.00 in0.0 mm
06:45 AM 60.4°F15.8°C 57.2°F14.0°C 89% 4.5 mph NE7.2 kmh NE 6.0 mph9.7 kmh 29.57 in1001.4 mb 0.00 in0.0 mm 0.00 in0.0 mm 0.00 in0.0 mm
07:00 AM 61.0°F16.1°C 56.8°F13.8°C 86% 3.1 mph E5.0 kmh E 4.5 mph7.2 kmh 29.56 in1001.0 mb 0.00 in0.0 mm 0.00 in0.0 mm 0.00 in0.0 mm
07:15 AM 62.1°F16.7°C 57.2°F14.0°C 84% 4.5 mph NE7.2 kmh NE 6.9 mph11.1 kmh 29.56 in1001.0 mb 0.00 in0.0 mm 0.00 in0.0 mm 0.00 in0.0 mm
07:30 AM 62.8°F17.1°C 56.9°F13.8°C 81% 9.2 mph NNE14.8 kmh NNE 10.7 mph17.2 kmh 29.57 in1001.4 mb 0.00 in0.0 mm 0.00 in0.0 mm 0.00 in0.0 mm
07:45 AM 63.0°F17.2°C 56.7°F13.7°C 80% 3.1 mph NE5.0 kmh NE 7.6 mph12.2 kmh 29.56 in1001.0 mb 0.00 in0.0 mm 0.00 in0.0 mm 0.00 in0.0 mm
08:00 AM 63.3°F17.4°C 56.3°F13.5°C 78% 4.5 mph NNE7.2 kmh NNE 9.2 mph14.8 kmh 29.56 in1001.0 mb 0.00 in0.0 mm 0.00 in0.0 mm 0.00 in0.0 mm
08:15 AM 64.2°F17.9°C 55.8°F13.2°C 74% 3.1 mph N5.0 kmh N 5.4 mph8.7 kmh 29.55 in1000.7 mb 0.00 in0.0 mm 0.00 in0.0 mm 0.00 in0.0 mm
08:30 AM 65.8°F18.8°C 56.2°F13.4°C 71% 6.9 mph NNE11.1 kmh NNE 9.8 mph15.8 kmh 29.55 in1000.7 mb 0.00 in0.0 mm 0.00 in0.0 mm 0.00 in0.0 mm
08:45 AM 66.7°F19.3°C 56.6°F13.7°C 70% 7.6 mph NNE12.2 kmh NNE 12.1 mph19.5 kmh 29.55 in1000.7 mb 0.00 in0.0 mm 0.00 in0.0 mm 0.00 in0.0 mm
09:00 AM 66.2°F19.0°C 55.3°F12.9°C 68% 7.6 mph NNE12.2 kmh NNE 15.2 mph24.5 kmh 29.54 in1000.3 mb 0.00 in0.0 mm 0.00 in0.0 mm 0.00 in0.0 mm
09:15 AM 66.0°F18.9°C 55.6°F13.1°C 69% 5.4 mph NNE8.7 kmh NNE 13.6 mph21.9 kmh 29.55 in1000.7 mb 0.00 in0.0 mm 0.00 in0.0 mm 0.00 in0.0 mm
09:30 AM 66.4°F19.1°C 55.9°F13.3°C 69% 8.3 mph NNE13.4 kmh NNE 19.7 mph31.7 kmh 29.53 in1000.0 mb 0.00 in0.0 mm 0.00 in0.0 mm 0.00 in0.0 mm
09:45 AM 68.2°F20.1°C 56.0°F13.3°C 65% 6.9 mph NNE11.1 kmh NNE 14.5 mph23.3 kmh 29.53 in1000.0 mb 0.00 in0.0 mm 0.00 in0.0 mm 0.00 in0.0 mm
10:00 AM 68.7°F20.4°C 56.0°F13.3°C 64% 9.2 mph ENE14.8 kmh ENE 12.1 mph19.5 kmh 29.53 in1000.0 mb 0.00 in0.0 mm 0.00 in0.0 mm 0.00 in0.0 mm
10:15 AM 68.9°F20.5°C 55.3°F12.9°C 62% 9.8 mph NNE15.8 kmh NNE 13.0 mph20.9 kmh 29.53 in1000.0 mb 0.00 in0.0 mm 0.00 in0.0 mm 0.00 in0.0 mm
10:30 AM 68.4°F20.2°C 54.8°F12.7°C 62% 6.9 mph NE11.1 kmh NE 15.2 mph24.5 kmh 29.54 in1000.3 mb 0.00 in0.0 mm 0.00 in0.0 mm 0.00 in0.0 mm
10:45 AM 68.2°F20.1°C 55.1°F12.8°C 63% 6.9 mph NE11.1 kmh NE 14.5 mph23.3 kmh 29.53 in1000.0 mb 0.00 in0.0 mm 0.00 in0.0 mm 0.00 in0.0 mm
11:00 AM 68.2°F20.1°C 54.7°F12.6°C 62% 4.5 mph NE7.2 kmh NE 11.4 mph18.3 kmh 29.53 in1000.0 mb 0.00 in0.0 mm 0.00 in0.0 mm 0.00 in0.0 mm
11:15 AM 68.4°F20.2°C 54.8°F12.7°C 62% 3.1 mph ENE5.0 kmh ENE 9.2 mph14.8 kmh 29.52 in999.7 mb 0.00 in0.0 mm 0.00 in0.0 mm 0.00 in0.0 mm
11:30 AM 68.0°F20.0°C 54.9°F12.7°C 63% 9.2 mph NE14.8 kmh NE 11.4 mph18.3 kmh 29.52 in999.7 mb 0.00 in0.0 mm 0.00 in0.0 mm 0.00 in0.0 mm
11:45 AM 67.3°F19.6°C 55.1°F12.8°C 65% 6.9 mph NE11.1 kmh NE 11.4 mph18.3 kmh 29.52 in999.7 mb 0.00 in0.0 mm 0.00 in0.0 mm 0.00 in0.0 mm
12:00 PM 66.9°F19.4°C 54.8°F12.7°C 65% 5.4 mph NE8.7 kmh NE 17.4 mph28.0 kmh 29.52 in999.7 mb 0.00 in0.0 mm 0.00 in0.0 mm 0.00 in0.0 mm
12:15 PM 66.7°F19.3°C 54.6°F12.6°C 65% 5.4 mph NE8.7 kmh NE 15.2 mph24.5 kmh 29.52 in999.7 mb 0.00 in0.0 mm 0.00 in0.0 mm 0.00 in0.0 mm
12:30 PM 66.4°F19.1°C 54.7°F12.6°C 66% 4.5 mph NE7.2 kmh NE 17.4 mph28.0 kmh 29.51 in999.3 mb 0.00 in0.0 mm 0.00 in0.0 mm 0.00 in0.0 mm
12:45 PM 66.7°F19.3°C 54.6°F12.6°C 65% 6.0 mph NE9.7 kmh NE 13.6 mph21.9 kmh 29.51 in999.3 mb 0.00 in0.0 mm 0.00 in0.0 mm 0.00 in0.0 mm
01:00 PM 66.7°F19.3°C 54.6°F12.6°C 65% 9.8 mph NNE15.8 kmh NNE 13.0 mph20.9 kmh 29.50 in999.0 mb 0.00 in0.0 mm 0.00 in0.0 mm 0.00 in0.0 mm
01:15 PM 66.6°F19.2°C 54.4°F12.4°C 65% 5.4 mph NE8.7 kmh NE 9.8 mph15.8 kmh 29.50 in999.0 mb 0.00 in0.0 mm 0.00 in0.0 mm 0.00 in0.0 mm
01:30 PM 66.4°F19.1°C 54.7°F12.6°C 66% 5.4 mph ENE8.7 kmh ENE 9.8 mph15.8 kmh 29.50 in999.0 mb 0.00 in0.0 mm 0.00 in0.0 mm 0.00 in0.0 mm
01:45 PM 65.7°F18.7°C 55.6°F13.1°C 70% 3.1 mph ENE5.0 kmh ENE 6.9 mph11.1 kmh 29.50 in999.0 mb 0.00 in0.0 mm 0.00 in0.0 mm 0.00 in0.0 mm
02:00 PM 64.6°F18.1°C 55.0°F12.8°C 71% 3.8 mph ENE6.1 kmh ENE 6.9 mph11.1 kmh 29.50 in999.0 mb 0.01 in0.3 mm 0.01 in0.3 mm 0.01 in0.3 mm
02:15 PM 63.7°F17.6°C 54.9°F12.7°C 73% 3.1 mph ENE5.0 kmh ENE 4.5 mph7.2 kmh 29.49 in998.6 mb 0.01 in0.3 mm 0.00 in0.0 mm 0.01 in0.3 mm
02:30 PM 63.1°F17.3°C 56.9°F13.8°C 80% 1.6 mph NE2.6 kmh NE 3.8 mph6.1 kmh 29.49 in998.6 mb 0.02 in0.5 mm 0.04 in1.0 mm 0.02 in0.5 mm
02:45 PM 62.6°F17.0°C 57.0°F13.9°C 82% 2.2 mph NE3.5 kmh NE 3.1 mph5.0 kmh 29.48 in998.3 mb 0.05 in1.3 mm 0.12 in3.0 mm 0.05 in1.3 mm
03:00 PM 62.1°F16.7°C 56.8°F13.8°C 83% 2.2 mph NE3.5 kmh NE 3.1 mph5.0 kmh 29.49 in998.6 mb 0.07 in1.8 mm 0.03 in0.8 mm 0.08 in2.0 mm
03:15 PM 61.5°F16.4°C 56.6°F13.7°C 84% 3.1 mph NE5.0 kmh NE 4.5 mph7.2 kmh 29.48 in998.3 mb 0.11 in2.8 mm 0.16 in4.1 mm 0.12 in3.0 mm
03:30 PM 61.2°F16.2°C 57.3°F14.1°C 87% 4.5 mph N7.2 kmh N 6.0 mph9.7 kmh 29.47 in998.0 mb 0.13 in3.3 mm 0.08 in2.0 mm 0.15 in3.8 mm
03:45 PM 61.0°F16.1°C 57.7°F14.3°C 89% 4.5 mph N7.2 kmh N 6.9 mph11.1 kmh 29.46 in997.6 mb 0.13 in3.3 mm 0.00 in0.0 mm 0.18 in4.6 mm
04:00 PM 60.8°F16.0°C 57.8°F14.3°C 90% 5.4 mph N8.7 kmh N 9.2 mph14.8 kmh 29.46 in997.6 mb 0.12 in3.0 mm 0.00 in0.0 mm 0.20 in5.1 mm
04:15 PM 60.6°F15.9°C 58.0°F14.4°C 91% 7.6 mph N12.2 kmh N 9.8 mph15.8 kmh 29.46 in997.6 mb 0.08 in2.0 mm 0.00 in0.0 mm 0.20 in5.1 mm
04:30 PM 60.6°F15.9°C 58.3°F14.6°C 92% 8.3 mph N13.4 kmh N 11.4 mph18.3 kmh 29.45 in997.3 mb 0.11 in2.8 mm 0.12 in3.0 mm 0.26 in6.6 mm
04:45 PM 60.4°F15.8°C 58.4°F14.7°C 93% 6.9 mph N11.1 kmh N 11.4 mph18.3 kmh 29.45 in997.3 mb 0.14 in3.6 mm 0.12 in3.0 mm 0.32 in8.1 mm
05:00 PM 60.3°F15.7°C 58.5°F14.7°C 94% 7.6 mph N12.2 kmh N 15.2 mph24.5 kmh 29.45 in997.3 mb 0.13 in3.3 mm 0.00 in0.0 mm 0.33 in8.4 mm
05:15 PM 60.3°F15.7°C 58.8°F14.9°C 95% 8.3 mph N13.4 kmh N 15.2 mph24.5 kmh 29.44 in997.0 mb 0.13 in3.3 mm 0.00 in0.0 mm 0.34 in8.6 mm
05:30 PM 60.4°F15.8°C 59.3°F15.2°C 96% 6.9 mph NNE11.1 kmh NNE 16.8 mph27.0 kmh 29.44 in997.0 mb 0.08 in2.0 mm 0.00 in0.0 mm 0.34 in8.6 mm
05:45 PM 60.3°F15.7°C 59.1°F15.1°C 96% 8.3 mph NE13.4 kmh NE 12.1 mph19.5 kmh 29.43 in996.6 mb 0.04 in1.0 mm 0.00 in0.0 mm 0.35 in8.9 mm
06:00 PM 60.3°F15.7°C 59.4°F15.2°C 97% 8.3 mph NNE13.4 kmh NNE 17.4 mph28.0 kmh 29.42 in996.3 mb 0.05 in1.3 mm 0.01 in0.3 mm 0.38 in9.7 mm
06:15 PM 60.1°F15.6°C 59.2°F15.1°C 97% 4.5 mph NE7.2 kmh NE 13.0 mph20.9 kmh 29.43 in996.6 mb 0.11 in2.8 mm 0.24 in6.1 mm 0.45 in11.4 mm
06:30 PM 59.2°F15.1°C 58.0°F14.4°C 96% 3.1 mph E5.0 kmh E 8.3 mph13.4 kmh 29.43 in996.6 mb 0.15 in3.8 mm 0.16 in4.1 mm 0.50 in12.7 mm
06:45 PM 58.5°F14.7°C 57.3°F14.1°C 96% 4.5 mph NE7.2 kmh NE 8.3 mph13.4 kmh 29.42 in996.3 mb 0.14 in3.6 mm 0.00 in0.0 mm 0.50 in12.7 mm
07:00 PM 58.1°F14.5°C 56.7°F13.7°C 95% 3.8 mph ENE6.1 kmh ENE 5.4 mph8.7 kmh 29.43 in996.6 mb 0.12 in3.0 mm 0.00 in0.0 mm 0.50 in12.7 mm
07:15 PM 58.1°F14.5°C 56.7°F13.7°C 95% 3.8 mph NE6.1 kmh NE 6.0 mph9.7 kmh 29.43 in996.6 mb 0.05 in1.3 mm 0.00 in0.0 mm 0.50 in12.7 mm
07:30 PM 57.9°F14.4°C 56.5°F13.6°C 95% 2.2 mph NE3.5 kmh NE 5.4 mph8.7 kmh 29.43 in996.6 mb 0.00 in0.0 mm 0.00 in0.0 mm 0.50 in12.7 mm
07:45 PM 57.9°F14.4°C 56.5°F13.6°C 95% 5.4 mph NE8.7 kmh NE 6.9 mph11.1 kmh 29.43 in996.6 mb 0.00 in0.0 mm 0.00 in0.0 mm 0.50 in12.7 mm
08:00 PM 57.9°F14.4°C 56.5°F13.6°C 95% 4.5 mph NE7.2 kmh NE 7.6 mph12.2 kmh 29.44 in997.0 mb 0.00 in0.0 mm 0.00 in0.0 mm 0.50 in12.7 mm
08:15 PM 57.9°F14.4°C 56.5°F13.6°C 95% 5.4 mph NNE8.7 kmh NNE 6.9 mph11.1 kmh 29.44 in997.0 mb 0.00 in0.0 mm 0.00 in0.0 mm 0.50 in12.7 mm
08:30 PM 57.9°F14.4°C 56.5°F13.6°C 95% 2.2 mph NE3.5 kmh NE 7.6 mph12.2 kmh 29.44 in997.0 mb 0.00 in0.0 mm 0.00 in0.0 mm 0.50 in12.7 mm
08:45 PM 57.9°F14.4°C 56.8°F13.8°C 96% 5.4 mph NE8.7 kmh NE 9.2 mph14.8 kmh 29.43 in996.6 mb 0.00 in0.0 mm 0.00 in0.0 mm 0.50 in12.7 mm
09:00 PM 57.9°F14.4°C 56.8°F13.8°C 96% 3.8 mph NNE6.1 kmh NNE 9.2 mph14.8 kmh 29.43 in996.6 mb 0.00 in0.0 mm 0.00 in0.0 mm 0.50 in12.7 mm
09:15 PM 57.9°F14.4°C 56.8°F13.8°C 96% 6.0 mph NNE9.7 kmh NNE 9.8 mph15.8 kmh 29.44 in997.0 mb 0.00 in0.0 mm 0.00 in0.0 mm 0.50 in12.7 mm
09:30 PM 57.7°F14.3°C 56.6°F13.7°C 96% 3.8 mph NE6.1 kmh NE 9.2 mph14.8 kmh 29.44 in997.0 mb 0.00 in0.0 mm 0.00 in0.0 mm 0.50 in12.7 mm
09:45 PM 57.6°F14.2°C 56.4°F13.6°C 96% 6.9 mph NE11.1 kmh NE 8.3 mph13.4 kmh 29.43 in996.6 mb 0.00 in0.0 mm 0.00 in0.0 mm 0.50 in12.7 mm
10:00 PM 57.6°F14.2°C 56.4°F13.6°C 96% 4.5 mph NE7.2 kmh NE 7.6 mph12.2 kmh 29.43 in996.6 mb 0.00 in0.0 mm 0.00 in0.0 mm 0.50 in12.7 mm
10:15 PM 57.4°F14.1°C 56.2°F13.4°C 96% 4.5 mph NNE7.2 kmh NNE 6.9 mph11.1 kmh 29.44 in997.0 mb 0.00 in0.0 mm 0.00 in0.0 mm 0.50 in12.7 mm
10:30 PM 57.4°F14.1°C 56.2°F13.4°C 96% 4.5 mph NE7.2 kmh NE 9.2 mph14.8 kmh 29.44 in997.0 mb 0.00 in0.0 mm 0.00 in0.0 mm 0.50 in12.7 mm
10:45 PM 57.4°F14.1°C 56.2°F13.4°C 96% 4.5 mph NE7.2 kmh NE 9.2 mph14.8 kmh 29.43 in996.6 mb 0.00 in0.0 mm 0.00 in0.0 mm 0.50 in12.7 mm
11:00 PM 57.4°F14.1°C 56.2°F13.4°C 96% 5.4 mph NNE8.7 kmh NNE 9.8 mph15.8 kmh 29.43 in996.6 mb 0.00 in0.0 mm 0.00 in0.0 mm 0.30 in7.6 mm
11:15 PM 57.4°F14.1°C 56.2°F13.4°C 96% 6.9 mph NNE11.1 kmh NNE 12.1 mph19.5 kmh 29.42 in996.3 mb 0.00 in0.0 mm 0.00 in0.0 mm 0.30 in7.6 mm
11:30 PM 57.4°F14.1°C 56.2°F13.4°C 96% 6.0 mph NNE9.7 kmh NNE 9.8 mph15.8 kmh 29.42 in996.3 mb 0.00 in0.0 mm 0.00 in0.0 mm 0.30 in7.6 mm
11:45 PM 57.4°F14.1°C 56.2°F13.4°C 96% 6.0 mph NNE9.7 kmh NNE 10.7 mph17.2 kmh 29.42 in996.3 mb 0.00 in0.0 mm 0.00 in0.0 mm 0.30 in7.6 mm